Time;durP1;ratioP1;P1;durP2;ratioP2;P2;SDS_P1;SDS_P2;PMS_P1;PMS_P2;Temp;Humidity;BMP_temperature;BMP_pressure;BME280_temperature;BME280_humidity;BME280_pressure;Samples;Min_cycle;Max_cycle;Signal;HPM_P1;HPM_P2
2022/03/05 02:45:49;;;;;;;11.30;6.30;;;;;;;0.82;57.06;100696.09;105405;1276;111635;-85
2022/03/05 02:48:19;;;;;;;12.00;6.40;;;;;;;0.79;56.83;100695.02;105666;1276;108259;-86
2022/03/05 02:50:49;;;;;;;12.20;6.80;;;;;;;0.78;56.99;100698.60;106984;1276;138307;-84
2022/03/05 02:53:18;;;;;;;12.70;6.50;;;;;;;0.77;57.24;100696.36;107117;1276;97609;-87
2022/03/05 02:55:47;;;;;;;13.60;7.00;;;;;;;0.76;57.12;100698.58;107090;1276;137507;-86
2022/03/05 02:58:16;;;;;;;13.70;6.90;;;;;;;0.75;57.50;100699.08;107121;1276;111484;-84
2022/03/05 03:00:44;;;;;;;13.60;7.10;;;;;;;0.74;57.27;100698.04;107191;1276;109389;-84
2022/03/05 03:03:15;;;;;;;14.50;6.80;;;;;;;0.74;57.30;100699.40;105787;1276;140654;-85
2022/03/05 03:05:43;;;;;;;12.00;6.80;;;;;;;0.71;57.25;100700.36;105776;1276;97876;-84
2022/03/05 03:08:12;;;;;;;12.00;6.60;;;;;;;0.69;57.04;100703.41;105538;1276;137705;-84
2022/03/05 03:10:41;;;;;;;12.60;6.80;;;;;;;0.68;57.09;100701.69;105566;1276;112907;-84
2022/03/05 03:13:09;;;;;;;11.20;6.30;;;;;;;0.68;57.38;100702.70;105499;1276;137959;-83
2022/03/05 03:15:38;;;;;;;12.50;6.70;;;;;;;0.68;57.18;100703.23;105436;1278;106007;-83
2022/03/05 03:18:06;;;;;;;14.80;7.40;;;;;;;0.68;57.51;100700.83;105578;1276;97936;-84
2022/03/05 03:20:35;;;;;;;14.30;7.60;;;;;;;0.69;57.51;100701.02;105841;1276;138081;-83
2022/03/05 03:23:04;;;;;;;14.60;6.50;;;;;;;0.70;57.51;100702.39;105613;1276;110643;-83
2022/03/05 03:25:33;;;;;;;12.90;6.90;;;;;;;0.69;57.51;100698.45;105847;1276;138698;-85
2022/03/05 03:28:01;;;;;;;10.90;6.30;;;;;;;0.68;57.53;100699.80;107043;1278;108069;-84
2022/03/05 03:30:30;;;;;;;11.00;6.70;;;;;;;0.67;57.70;100704.42;106388;1278;97836;-85
2022/03/05 03:32:58;;;;;;;12.30;7.00;;;;;;;0.67;57.35;100703.55;106941;1277;136367;-86
2022/03/05 03:35:27;;;;;;;15.30;7.50;;;;;;;0.66;57.62;100699.44;107188;1277;112461;-86
2022/03/05 03:37:57;;;;;;;13.10;6.90;;;;;;;0.67;57.54;100700.30;106943;1277;137877;-85
2022/03/05 03:40:26;;;;;;;12.90;6.70;;;;;;;0.67;57.75;100699.45;107030;1277;108460;-85
2022/03/05 03:42:54;;;;;;;14.20;6.90;;;;;;;0.69;57.68;100704.77;106965;1278;96118;-84
2022/03/05 03:45:23;;;;;;;10.50;6.20;;;;;;;0.70;57.53;100701.88;106955;1276;137727;-85
2022/03/05 03:47:53;;;;;;;11.30;5.90;;;;;;;0.71;57.59;100704.80;107079;1276;112517;-85
2022/03/05 03:50:23;;;;;;;10.00;5.60;;;;;;;0.73;57.37;100706.75;106973;1276;137989;-86
2022/03/05 03:52:52;;;;;;;10.50;5.30;;;;;;;0.74;57.18;100707.97;107104;1276;109072;-85
2022/03/05 03:55:23;;;;;;;8.80;5.30;;;;;;;0.75;57.29;100712.09;106939;1276;138284;-86
2022/03/05 03:57:51;;;;;;;7.00;4.80;;;;;;;0.75;57.25;100714.48;107206;1276;96287;-84
2022/03/05 04:00:22;;;;;;;9.80;4.70;;;;;;;0.77;56.96;100711.59;107191;1276;112152;-84
2022/03/05 04:02:51;;;;;;;8.70;4.70;;;;;;;0.77;57.12;100715.02;107102;1276;137726;-85
2022/03/05 04:05:19;;;;;;;9.50;5.00;;;;;;;0.77;56.91;100715.19;107142;1276;106830;-87
2022/03/05 04:10:35;;;;;;;7.00;4.40;;;;;;;0.77;56.67;100718.27;107091;1276;97283;-86
2022/03/05 04:13:04;;;;;;;7.30;4.50;;;;;;;0.76;56.93;100721.00;105523;1276;138881;-85
2022/03/05 04:15:32;;;;;;;8.10;4.40;;;;;;;0.76;56.82;100718.77;105614;1276;107997;-85
2022/03/05 04:18:01;;;;;;;6.50;3.90;;;;;;;0.78;56.87;100718.96;105660;1276;108838;-84
2022/03/05 04:20:30;;;;;;;5.90;4.10;;;;;;;0.78;56.92;100719.30;105456;1276;137550;-84
2022/03/05 04:22:59;;;;;;;6.70;3.90;;;;;;;0.76;56.78;100721.00;105867;1276;97811;-85
2022/03/05 04:25:28;;;;;;;8.10;4.60;;;;;;;0.75;56.73;100720.98;105532;1276;137723;-85
2022/03/05 04:27:57;;;;;;;5.20;3.80;;;;;;;0.73;56.82;100721.98;105697;1276;109063;-85
2022/03/05 04:30:26;;;;;;;5.30;3.90;;;;;;;0.70;56.98;100723.29;105627;1276;108454;-85
2022/03/05 04:32:55;;;;;;;6.70;4.30;;;;;;;0.67;56.99;100722.72;107001;1276;137697;-86
2022/03/05 04:35:24;;;;;;;6.80;4.10;;;;;;;0.65;56.72;100724.58;107182;1276;97521;-87
2022/03/05 04:37:52;;;;;;;7.70;4.40;;;;;;;0.62;56.75;100727.78;107353;1276;137643;-86
2022/03/05 04:40:22;;;;;;;8.20;4.20;;;;;;;0.59;56.85;100727.92;107066;1276;107725;-87
2022/03/05 04:42:51;;;;;;;5.60;3.90;;;;;;;0.57;56.72;100723.27;105657;1276;105455;-85
2022/03/05 04:45:20;;;;;;;7.60;3.90;;;;;;;0.57;57.04;100724.30;105599;1276;138614;-85
2022/03/05 04:47:49;;;;;;;5.80;3.30;;;;;;;0.57;56.90;100725.84;105711;1276;97862;-84
2022/03/05 04:50:17;;;;;;;6.30;4.50;;;;;;;0.57;57.01;100728.23;105517;1276;137479;-87
2022/03/05 04:52:46;;;;;;;8.70;4.20;;;;;;;0.57;56.87;100729.09;105795;1276;110743;-85
2022/03/05 04:55:15;;;;;;;6.40;4.10;;;;;;;0.57;56.97;100729.44;105487;1276;137998;-85
2022/03/05 04:57:43;;;;;;;7.30;4.10;;;;;;;0.58;57.18;100733.71;105700;1276;97887;-85
2022/03/05 05:00:15;;;;;;;6.30;4.10;;;;;;;0.57;57.37;100736.11;105688;1276;97822;-85
2022/03/05 05:02:44;;;;;;;7.40;4.10;;;;;;;0.57;57.14;100739.70;107073;1276;138508;-86
2022/03/05 05:05:13;;;;;;;5.80;4.10;;;;;;;0.57;57.16;100746.89;107233;1276;108015;-85
2022/03/05 05:07:41;;;;;;;6.30;3.80;;;;;;;0.55;57.10;100745.84;106971;1277;138277;-85
2022/03/05 05:10:10;;;;;;;5.80;4.10;;;;;;;0.53;56.87;100744.90;107305;1276;96731;-86
2022/03/05 05:12:39;;;;;;;5.90;4.00;;;;;;;0.52;56.94;100746.09;107114;1277;96127;-86
2022/03/05 05:15:10;;;;;;;8.10;3.70;;;;;;;0.51;57.05;100741.81;106412;1276;137274;-85
2022/03/05 05:17:39;;;;;;;7.50;4.10;;;;;;;0.52;57.06;100746.95;105907;1276;109021;-85
2022/03/05 05:20:11;;;;;;;6.30;3.80;;;;;;;0.53;57.21;100746.30;105405;1276;138448;-85
2022/03/05 05:22:41;;;;;;;4.90;3.50;;;;;;;0.56;57.06;100749.60;107059;1276;97721;-86
2022/03/05 05:25:10;;;;;;;5.90;4.10;;;;;;;0.57;57.15;100753.55;107333;1276;138188;-86
2022/03/05 05:27:39;;;;;;;6.70;3.90;;;;;;;0.60;57.09;100757.37;107480;1276;111703;-87
2022/03/05 05:30:09;;;;;;;5.40;3.90;;;;;;;0.62;56.93;100759.10;107494;1277;107908;-87
2022/03/05 05:32:38;;;;;;;9.00;4.20;;;;;;;0.64;56.85;100764.95;107068;1277;139022;-86
2022/03/05 05:35:08;;;;;;;5.90;3.80;;;;;;;0.66;56.83;100765.33;105999;1279;97865;-87
2022/03/05 05:37:37;;;;;;;5.30;3.60;;;;;;;0.63;56.59;100766.64;106945;1276;137556;-86
2022/03/05 05:40:08;;;;;;;6.60;3.40;;;;;;;0.59;56.81;100767.96;106379;1277;113472;-86
2022/03/05 05:42:37;;;;;;;6.40;3.90;;;;;;;0.58;56.87;100770.17;106931;1277;108369;-85
2022/03/05 05:45:06;;;;;;;6.90;3.70;;;;;;;0.58;56.64;100774.62;107087;1276;139305;-87
2022/03/05 05:47:35;;;;;;;6.20;3.70;;;;;;;0.59;56.67;100776.35;107181;1277;96576;-87
2022/03/05 05:50:06;;;;;;;4.90;3.70;;;;;;;0.62;56.96;100776.73;106875;1278;139334;-86
2022/03/05 05:52:35;;;;;;;7.50;4.00;;;;;;;0.64;56.80;100777.95;107348;1276;112339;-85
2022/03/05 05:55:04;;;;;;;6.70;4.00;;;;;;;0.66;56.86;100779.02;107180;1277;137577;-87
2022/03/05 05:57:33;;;;;;;5.70;3.90;;;;;;;0.68;56.82;100782.63;107117;1277;109157;-84
2022/03/05 06:00:01;;;;;;;6.60;4.00;;;;;;;0.70;56.80;100783.17;106946;1278;96525;-84
2022/03/05 06:02:40;;;;;;;5.90;4.10;;;;;;;0.73;56.81;100780.86;106916;1277;140123;-85
2022/03/05 06:05:10;;;;;;;8.10;5.00;;;;;;;0.73;56.75;100779.48;106490;1277;112624;-84
2022/03/05 06:07:39;;;;;;;6.70;4.10;;;;;;;0.76;56.78;100783.98;107332;1277;137860;-85
2022/03/05 06:10:10;;;;;;;8.20;4.10;;;;;;;0.79;56.88;100783.34;106142;1277;108201;-86
2022/03/05 06:12:38;;;;;;;6.80;4.20;;;;;;;0.82;56.73;100788.17;107432;1276;95898;-83
2022/03/05 06:15:10;;;;;;;9.80;4.90;;;;;;;0.80;56.75;100792.42;106927;1277;137881;-85
2022/03/05 06:17:42;;;;;;;8.90;4.30;;;;;;;0.81;56.72;100792.95;106003;1277;112571;-85
2022/03/05 06:20:12;;;;;;;9.50;4.70;;;;;;;0.86;56.77;100794.23;105795;1276;138051;-84
2022/03/05 06:22:42;;;;;;;7.40;4.60;;;;;;;0.89;56.85;100795.49;106000;1277;108572;-85
2022/03/05 06:25:11;;;;;;;6.60;4.60;;;;;;;0.92;56.73;100799.65;107279;1277;139615;-84
2022/03/05 06:27:40;;;;;;;6.10;4.40;;;;;;;0.92;56.65;100800.15;106985;1277;97677;-83
2022/03/05 06:30:11;;;;;;;8.40;4.60;;;;;;;0.93;56.69;100805.83;105859;1277;111676;-83
2022/03/05 06:32:39;;;;;;;9.30;4.90;;;;;;;0.96;56.79;100804.50;107082;1277;138081;-83
2022/03/05 06:35:09;;;;;;;11.10;5.20;;;;;;;1.00;56.89;100805.06;107083;1276;107901;-84
2022/03/05 06:37:38;;;;;;;10.00;5.30;;;;;;;1.02;56.78;100806.30;106844;1277;138008;-83
2022/03/05 06:40:10;;;;;;;7.40;4.90;;;;;;;1.03;56.59;100808.20;107157;1277;96234;-85
2022/03/05 06:45:11;;;;;;;9.30;4.90;;;;;;;1.09;56.55;100812.77;106893;1277;138011;-85
2022/03/05 06:47:40;;;;;;;9.50;4.80;;;;;;;1.14;56.90;100810.77;107013;1277;109036;-85
2022/03/05 06:50:11;;;;;;;7.90;4.30;;;;;;;1.20;56.99;100812.39;106891;1277;138008;-84
2022/03/05 06:52:40;;;;;;;8.50;4.70;;;;;;;1.29;56.86;100815.79;107077;1277;96594;-86
2022/03/05 06:55:13;;;;;;;7.20;4.90;;;;;;;1.37;56.74;100816.92;106924;1277;138229;-86
2022/03/05 06:57:42;;;;;;;7.90;5.10;;;;;;;1.44;56.65;100817.88;107358;1277;109287;-85
2022/03/05 07:00:13;;;;;;;8.30;4.90;;;;;;;1.51;56.50;100819.02;107006;1277;107871;-84
2022/03/05 07:02:42;;;;;;;12.20;6.70;;;;;;;1.60;56.22;100824.09;106959;1277;138207;-85
2022/03/05 07:05:11;;;;;;;9.40;5.50;;;;;;;1.66;56.23;100820.60;107068;1277;96108;-88
2022/03/05 07:07:40;;;;;;;10.00;5.50;;;;;;;1.73;56.10;100819.13;106961;1277;138070;-84
2022/03/05 07:10:10;;;;;;;7.70;5.10;;;;;;;1.79;56.04;100820.06;107142;1277;106897;-85
2022/03/05 07:12:39;;;;;;;7.20;5.20;;;;;;;1.84;55.74;100816.71;107213;1277;109498;-86
2022/03/05 07:15:09;;;;;;;10.80;7.20;;;;;;;1.91;55.75;100820.89;105505;1277;137547;-86
2022/03/05 07:17:37;;;;;;;7.90;5.70;;;;;;;1.99;55.61;100820.48;106957;1277;97490;-86
2022/03/05 07:20:08;;;;;;;8.90;4.80;;;;;;;2.07;55.41;100817.83;106151;1277;138130;-86
2022/03/05 07:22:37;;;;;;;8.30;5.20;;;;;;;2.14;55.09;100823.39;105580;1277;109255;-85
2022/03/05 07:25:08;;;;;;;7.70;5.10;;;;;;;2.16;55.14;100822.57;105458;1277;137812;-83
2022/03/05 07:27:37;;;;;;;8.90;4.90;;;;;;;2.24;55.21;100819.91;107195;1277;97239;-82
2022/03/05 07:30:09;;;;;;;8.10;4.80;;;;;;;2.33;54.99;100822.91;107191;1277;96139;-84
2022/03/05 07:32:38;;;;;;;7.20;4.60;;;;;;;2.39;54.96;100825.58;106895;1277;137729;-84
2022/03/05 07:35:08;;;;;;;6.90;4.70;;;;;;;2.44;54.53;100831.27;106752;1277;108889;-83
2022/03/05 07:37:37;;;;;;;11.50;4.40;;;;;;;2.46;54.45;100836.77;106930;1277;137737;-84
2022/03/05 07:40:08;;;;;;;7.70;4.60;;;;;;;2.44;54.20;100829.73;107096;1277;96278;-84
2022/03/05 07:42:37;;;;;;;8.50;4.60;;;;;;;2.45;54.15;100833.68;107158;1277;96629;-84
2022/03/05 07:45:08;;;;;;;7.70;4.70;;;;;;;2.50;54.15;100834.77;105667;1279;137300;-84
2022/03/05 07:47:36;;;;;;;6.80;4.50;;;;;;;2.55;54.07;100833.45;106997;1279;108116;-84
2022/03/05 07:50:06;;;;;;;10.30;5.00;;;;;;;2.61;54.11;100835.89;106779;1279;138171;-84
2022/03/05 07:52:35;;;;;;;8.50;5.10;;;;;;;2.70;54.17;100836.34;106928;1279;97739;-84
2022/03/05 07:55:05;;;;;;;10.10;5.40;;;;;;;2.81;53.83;100838.48;106904;1279;137573;-85
2022/03/05 07:57:34;;;;;;;7.60;5.00;;;;;;;2.90;53.68;100839.61;106989;1279;112748;-84
2022/03/05 08:00:03;;;;;;;7.50;5.10;;;;;;;2.99;53.47;100837.61;107028;1280;109122;-84
2022/03/05 08:02:50;;;;;;;8.30;5.00;;;;;;;3.11;53.26;100839.09;106780;1279;138670;-84
2022/03/05 08:05:19;;;;;;;10.70;5.30;;;;;;;3.17;52.94;100837.92;107168;1279;95881;-85
2022/03/05 08:07:48;;;;;;;9.50;5.20;;;;;;;3.24;52.71;100836.44;107033;1279;138868;-85
2022/03/05 08:10:16;;;;;;;9.60;4.70;;;;;;;3.36;52.63;100835.83;107193;1279;111434;-85
2022/03/05 08:12:45;;;;;;;7.60;4.60;;;;;;;3.50;52.53;100839.02;107087;1279;107914;-85
2022/03/05 08:15:14;;;;;;;7.30;4.80;;;;;;;3.65;52.16;100841.69;106954;1279;138040;-85
2022/03/05 08:17:51;;;;;;;9.50;4.70;;;;;;;3.78;51.98;100837.27;106858;1281;96338;-86
2022/03/05 08:20:20;;;;;;;8.80;5.20;;;;;;;3.91;51.79;100839.75;106750;1279;137402;-84
2022/03/05 08:22:48;;;;;;;9.50;5.40;;;;;;;4.05;51.56;100840.14;106519;1279;112666;-85
2022/03/05 08:25:17;;;;;;;10.00;5.40;;;;;;;4.18;51.54;100843.98;105332;1279;137995;-84
2022/03/05 08:27:46;;;;;;;8.90;5.30;;;;;;;4.33;51.21;100841.95;105512;1281;106093;-86
2022/03/05 08:30:16;;;;;;;7.50;4.50;;;;;;;4.46;50.66;100844.40;105774;1279;97964;-87
2022/03/05 08:32:45;;;;;;;7.50;4.70;;;;;;;4.56;50.33;100846.33;105370;1279;140437;-87
2022/03/05 08:35:14;;;;;;;10.90;5.30;;;;;;;4.65;50.00;100847.89;105495;1279;112230;-86
2022/03/05 08:37:43;;;;;;;9.20;5.90;;;;;;;4.73;50.10;100844.80;105446;1280;138543;-89
2022/03/05 08:40:15;;;;;;;8.90;4.80;;;;;;;4.80;49.69;100847.89;105591;1279;107935;-85
2022/03/05 08:42:44;;;;;;;7.20;4.80;;;;;;;4.82;49.22;100850.14;105611;1279;97822;-87
2022/03/05 08:45:13;;;;;;;8.90;4.80;;;;;;;4.82;48.95;100853.23;105458;1279;136290;-86
2022/03/05 08:47:44;;;;;;;8.10;5.10;;;;;;;4.75;49.02;100853.59;105481;1279;112158;-85
2022/03/05 08:50:13;;;;;;;8.10;5.30;;;;;;;4.71;48.80;100856.69;105466;1279;137977;-85
2022/03/05 08:52:42;;;;;;;5.80;4.30;;;;;;;4.73;49.02;100858.23;106962;1279;108796;-88
2022/03/05 08:55:14;;;;;;;6.60;4.30;;;;;;;4.80;48.69;100860.13;106795;1279;137745;-88
2022/03/05 08:57:42;;;;;;;6.20;4.40;;;;;;;4.88;48.64;100864.29;106983;1278;97294;-88
2022/03/05 09:00:14;;;;;;;8.50;4.40;;;;;;;4.91;48.27;100863.25;106904;1279;113238;-88
2022/03/05 09:02:43;;;;;;;6.30;4.60;;;;;;;4.90;48.17;100859.80;106882;1279;137782;-87
2022/03/05 09:05:14;;;;;;;6.20;3.70;;;;;;;4.89;47.78;100865.50;106191;1279;108134;-90
2022/03/05 09:07:44;;;;;;;7.70;4.20;;;;;;;4.86;47.39;100865.33;106760;1279;138758;-87
2022/03/05 09:10:13;;;;;;;7.40;4.40;;;;;;;4.87;47.53;100866.70;106789;1279;96592;-89
2022/03/05 09:12:42;;;;;;;6.40;3.70;;;;;;;4.87;47.32;100867.05;106974;1278;111519;-89
2022/03/05 09:15:11;;;;;;;7.80;4.30;;;;;;;4.92;47.15;100866.35;106877;1279;137777;-89
2022/03/05 09:17:40;;;;;;;6.10;4.20;;;;;;;5.00;47.23;100867.38;107055;1279;109183;-88
2022/03/05 09:20:11;;;;;;;6.00;4.00;;;;;;;5.05;46.76;100864.64;106749;1279;137989;-83
2022/03/05 09:22:39;;;;;;;5.20;3.70;;;;;;;5.05;46.76;100865.17;106981;1279;96060;-90
2022/03/05 09:25:10;;;;;;;5.30;3.60;;;;;;;5.05;46.01;100868.09;106832;1279;139659;-90
2022/03/05 09:27:39;;;;;;;7.30;3.90;;;;;;;5.00;45.47;100870.66;106497;1279;108914;-88
2022/03/05 09:30:10;;;;;;;11.40;6.80;;;;;;;4.90;45.59;100868.08;105501;1279;109065;-87
2022/03/05 09:32:39;;;;;;;6.60;4.00;;;;;;;4.79;45.62;100865.30;106985;1279;140025;-88
2022/03/05 09:35:08;;;;;;;5.60;3.60;;;;;;;4.68;45.72;100872.18;106958;1279;96613;-91
2022/03/05 09:37:37;;;;;;;7.00;3.70;;;;;;;4.59;45.91;100868.20;106798;1279;137497;-88
2022/03/05 09:40:12;;;;;;;4.60;3.50;;;;;;;4.54;45.89;100870.94;106800;1279;110997;-88
2022/03/05 09:42:45;;;;;;;6.40;3.70;;;;;;;4.52;45.99;100873.70;105522;1279;109007;-87
2022/03/05 09:45:15;;;;;;;4.90;3.40;;;;;;;4.47;45.56;100880.56;105448;1279;138123;-88
2022/03/05 09:47:44;;;;;;;5.20;3.30;;;;;;;4.40;45.68;100880.02;106294;1279;97741;-88
2022/03/05 09:50:14;;;;;;;3.30;2.90;;;;;;;4.37;45.71;100881.58;106779;1279;137954;-90
2022/03/05 09:52:42;;;;;;;4.60;3.10;;;;;;;4.35;45.52;100884.15;106962;1278;109144;-88
2022/03/05 09:55:11;;;;;;;4.30;3.20;;;;;;;4.35;45.63;100882.77;106760;1279;137762;-91
2022/03/05 09:57:40;;;;;;;5.60;2.90;;;;;;;4.35;45.39;100885.70;106985;1278;96338;-90
2022/03/05 10:00:10;;;;;;;4.90;3.50;;;;;;;4.29;45.13;100887.56;106837;1279;96026;-90
2022/03/05 10:02:38;;;;;;;4.80;3.60;;;;;;;4.22;45.07;100890.98;106648;1279;137854;-89
2022/03/05 10:05:15;;;;;;;4.40;3.20;;;;;;;4.17;44.75;100889.77;106975;1279;108379;-89
2022/03/05 10:08:01;;;;;;;5.50;3.30;;;;;;;4.11;44.76;100889.89;106610;1279;138627;-91
2022/03/05 10:10:30;;;;;;;4.80;3.90;;;;;;;4.02;45.01;100893.83;106968;1279;96084;-90
2022/03/05 10:13:16;;;;;;;6.80;4.50;;;;;;;3.91;44.99;100899.79;107187;1279;96025;-90
2022/03/05 10:15:45;;;;;;;10.20;4.00;;;;;;;3.83;45.10;100896.82;106851;1279;137231;-88
2022/03/05 10:18:15;;;;;;;6.20;4.00;;;;;;;3.75;45.29;100895.39;107119;1278;107893;-91
2022/03/05 10:20:48;;;;;;;7.10;4.10;;;;;;;3.67;45.40;100900.85;105586;1281;137754;-90
2022/03/05 10:23:17;;;;;;;5.40;3.80;;;;;;;3.60;45.44;100900.81;106877;1279;96515;-89
2022/03/05 10:25:48;;;;;;;7.10;3.90;;;;;;;3.58;45.44;100901.13;105900;1279;137790;-87
2022/03/05 10:28:18;;;;;;;6.40;3.90;;;;;;;3.58;45.31;100899.23;106606;1278;112949;-89
2022/03/05 10:30:48;;;;;;;7.50;3.70;;;;;;;3.55;45.29;100899.73;106796;1278;108064;-88
2022/03/05 10:33:29;;;;;;;6.90;4.20;;;;;;;3.50;45.52;100900.21;105552;1278;138223;-88
2022/03/05 10:35:59;;;;;;;6.50;4.60;;;;;;;3.47;45.72;100901.58;106392;1278;97811;-88
2022/03/05 10:38:49;;;;;;;5.10;3.70;;;;;;;3.41;45.78;100904.80;105611;1278;137964;-89
2022/03/05 10:41:19;;;;;;;8.10;3.90;;;;;;;3.36;45.42;100912.65;107095;1279;112909;-89
2022/03/05 10:44:04;;;;;;;8.10;5.20;;;;;;;3.28;45.44;100907.79;106946;1278;137938;-89
2022/03/05 10:46:41;;;;;;;8.40;4.70;;;;;;;3.22;45.50;100907.22;107049;1278;107673;-91
2022/03/05 10:49:14;;;;;;;8.50;5.80;;;;;;;3.21;45.55;100906.00;107239;1278;97412;-90
2022/03/05 10:51:46;;;;;;;6.40;4.00;;;;;;;3.20;45.26;100910.11;106339;1278;137273;-90
2022/03/05 10:54:26;;;;;;;5.90;3.30;;;;;;;3.16;45.02;100909.23;106530;1278;111034;-87
2022/03/05 10:56:56;;;;;;;6.40;2.90;;;;;;;3.16;45.01;100907.50;106928;1278;137704;-89
2022/03/05 10:59:25;;;;;;;4.50;2.90;;;;;;;3.13;44.99;100905.77;107096;1279;107823;-89
2022/03/05 11:01:53;;;;;;;5.30;3.30;;;;;;;3.12;45.03;100907.13;105767;1279;137880;-89
2022/03/05 11:04:22;;;;;;;6.00;3.10;;;;;;;3.13;44.92;100907.66;105717;1279;97820;-90
2022/03/05 11:06:51;;;;;;;3.80;2.90;;;;;;;3.12;44.88;100905.42;106277;1279;111972;-90
2022/03/05 11:09:23;;;;;;;5.90;3.60;;;;;;;3.13;44.99;100900.61;106848;1279;139130;-92
2022/03/05 11:11:53;;;;;;;4.50;3.10;;;;;;;3.16;44.71;100902.19;105790;1279;107978;-91
2022/03/05 11:14:25;;;;;;;4.20;2.80;;;;;;;3.16;44.59;100901.50;105923;1279;137832;-90
2022/03/05 11:16:53;;;;;;;5.00;2.50;;;;;;;3.19;44.33;100897.21;107012;1279;96087;-88
2022/03/05 11:19:22;;;;;;;5.90;3.20;;;;;;;3.20;44.17;100896.71;106942;1278;138699;-89
2022/03/05 11:21:52;;;;;;;4.50;3.00;;;;;;;3.21;43.94;100896.38;106909;1279;107891;-90
2022/03/05 11:24:22;;;;;;;13.00;7.30;;;;;;;3.23;43.82;100896.23;107025;1278;110848;-89
2022/03/05 11:26:53;;;;;;;5.60;3.40;;;;;;;3.24;43.99;100895.73;106962;1278;138273;-88
2022/03/05 11:29:55;;;;;;;7.00;3.10;;;;;;;3.26;43.78;100896.61;107029;1278;97719;-91
2022/03/05 11:32:30;;;;;;;3.40;2.70;;;;;;;3.25;43.70;100892.31;105944;1279;137896;-89
2022/03/05 11:35:00;;;;;;;3.90;2.80;;;;;;;3.25;43.28;100893.33;106626;1279;105849;-86
2022/03/05 11:37:34;;;;;;;4.70;2.70;;;;;;;3.26;43.43;100889.56;105530;1279;137737;-86
2022/03/05 11:40:06;;;;;;;5.50;3.00;;;;;;;3.31;43.19;100887.02;105484;1279;97817;-89
2022/03/05 11:42:36;;;;;;;3.90;2.60;;;;;;;3.36;43.20;100885.66;106990;1279;97673;-88
2022/03/05 11:45:27;;;;;;;5.40;2.60;;;;;;;3.40;43.17;100889.13;106252;1279;137461;-89
2022/03/05 11:48:29;;;;;;;4.00;2.60;;;;;;;3.44;42.95;100887.46;106985;1279;110317;-88
2022/03/05 11:51:00;;;;;;;7.30;3.00;;;;;;;3.49;42.93;100886.63;105976;1278;137774;-90
2022/03/05 11:53:29;;;;;;;5.50;2.90;;;;;;;3.48;42.60;100881.13;107070;1277;97458;-90
2022/03/05 11:56:22;;;;;;;3.80;2.80;;;;;;;3.52;42.48;100882.35;106957;1278;138321;-88
2022/03/05 11:58:52;;;;;;;6.20;3.00;;;;;;;3.59;42.51;100885.14;107032;1279;113744;-87
2022/03/05 12:01:42;;;;;;;5.20;3.00;;;;;;;3.64;42.53;100883.98;106950;1278;138738;-83
2022/03/05 12:04:23;;;;;;;6.50;3.10;;;;;;;3.71;42.34;100884.01;107002;1276;107746;-89
2022/03/05 12:06:57;;;;;;;3.40;2.50;;;;;;;3.77;42.07;100887.84;107347;1277;95869;-88
2022/03/05 12:09:37;;;;;;;4.90;3.20;;;;;;;3.81;41.43;100885.29;106737;1278;139977;-89
2022/03/05 12:12:08;;;;;;;5.50;3.30;;;;;;;3.79;41.18;100883.21;105978;1279;114326;-87
2022/03/05 12:15:11;;;;;;;5.70;3.50;;;;;;;3.78;41.40;100887.34;107221;1278;139338;-89
2022/03/05 12:17:51;;;;;;;3.50;2.80;;;;;;;3.79;41.42;100883.89;107312;1279;109252;-88
2022/03/05 12:20:23;;;;;;;4.00;2.80;;;;;;;3.77;41.55;100881.30;107158;1276;137548;-89
2022/03/05 12:23:01;;;;;;;4.70;2.60;;;;;;;3.76;41.28;100882.48;105576;1279;97834;-90
2022/03/05 12:25:33;;;;;;;3.90;2.60;;;;;;;3.74;41.04;100880.23;105477;1275;137611;-87
2022/03/05 12:28:03;;;;;;;4.80;2.90;;;;;;;3.73;40.94;100873.70;105635;1277;109233;-88
2022/03/05 12:30:37;;;;;;;3.50;2.60;;;;;;;3.79;41.36;100872.03;107007;1278;108858;-89
2022/03/05 12:33:08;;;;;;;5.90;2.70;;;;;;;3.86;41.28;100870.51;105722;1277;137996;-88
2022/03/05 12:35:38;;;;;;;5.00;2.70;;;;;;;3.95;41.11;100866.95;106293;1278;97549;-90
2022/03/05 12:38:09;;;;;;;4.40;2.50;;;;;;;3.98;40.77;100867.48;105376;1277;138385;-88
2022/03/05 12:40:38;;;;;;;4.10;2.30;;;;;;;4.02;40.95;100864.22;105865;1278;107056;-89
2022/03/05 12:43:08;;;;;;;4.30;2.80;;;;;;;4.06;40.91;100864.23;105733;1277;109272;-87
2022/03/05 12:45:40;;;;;;;3.80;3.00;;;;;;;4.12;40.92;100857.90;106960;1278;138836;-90
2022/03/05 12:48:11;;;;;;;3.80;2.80;;;;;;;4.20;40.80;100860.17;106026;1278;97800;-90
2022/03/05 12:50:42;;;;;;;3.90;2.90;;;;;;;4.29;40.67;100860.70;106635;1279;139179;-87
2022/03/05 12:53:13;;;;;;;4.80;3.20;;;;;;;4.36;40.70;100854.71;107309;1278;120594;-88
2022/03/05 12:55:42;;;;;;;4.30;3.10;;;;;;;4.46;40.97;100860.76;107152;1278;138663;-90
2022/03/05 12:58:14;;;;;;;4.50;3.10;;;;;;;4.59;40.59;100856.99;105928;1277;97818;-87
2022/03/05 13:00:46;;;;;;;4.20;2.90;;;;;;;4.71;40.51;100857.89;107212;1278;95962;-90
2022/03/05 13:03:16;;;;;;;4.20;2.80;;;;;;;4.79;40.27;100857.02;107244;1277;136252;-90
2022/03/05 13:05:46;;;;;;;5.90;3.20;;;;;;;4.81;40.31;100857.88;107521;1277;107044;-90
2022/03/05 13:08:24;;;;;;;4.80;3.20;;;;;;;4.90;40.34;100855.15;107063;1276;136836;-89
2022/03/05 13:11:05;;;;;;;4.00;2.80;;;;;;;4.95;40.24;100856.19;105779;1277;97875;-89
2022/03/05 13:13:36;;;;;;;6.30;2.90;;;;;;;4.97;40.15;100857.21;107041;1279;137593;-89
2022/03/05 13:16:07;;;;;;;4.60;3.30;;;;;;;4.97;40.40;100857.90;107187;1277;112400;-88
2022/03/05 13:18:36;;;;;;;5.90;3.20;;;;;;;4.97;40.53;100859.97;107099;1278;108685;-90
2022/03/05 13:21:06;;;;;;;5.00;3.20;;;;;;;5.00;40.35;100855.49;106549;1279;137605;-90
2022/03/05 13:23:37;;;;;;;3.90;3.00;;;;;;;5.03;39.91;100854.13;106306;1279;97862;-88
2022/03/05 13:26:07;;;;;;;6.30;3.00;;;;;;;5.05;39.82;100852.41;105726;1278;136458;-88
2022/03/05 13:28:36;;;;;;;5.10;3.00;;;;;;;5.15;39.92;100854.11;106326;1278;112412;-89
2022/03/05 13:31:05;;;;;;;3.30;3.00;;;;;;;5.27;39.93;100851.02;105725;1278;107461;-88
2022/03/05 13:33:36;;;;;;;4.70;2.90;;;;;;;5.32;39.20;100850.31;105598;1278;136631;-87
2022/03/05 13:36:18;;;;;;;3.40;2.80;;;;;;;5.30;39.41;100856.52;105645;1278;97856;-90
2022/03/05 13:38:48;;;;;;;4.80;3.30;;;;;;;5.35;39.48;100856.67;105755;1279;138736;-87
2022/03/05 13:41:24;;;;;;;4.40;3.30;;;;;;;5.41;39.09;100853.08;105915;1278;112061;-90
2022/03/05 13:43:54;;;;;;;3.70;2.90;;;;;;;5.37;38.74;100855.48;105825;1278;137983;-88
2022/03/05 13:46:25;;;;;;;5.60;3.10;;;;;;;5.33;39.48;100857.20;105705;1278;108954;-91
2022/03/05 13:48:57;;;;;;;4.80;3.00;;;;;;;5.40;39.85;100858.25;105652;1278;98490;-89
2022/03/05 13:51:31;;;;;;;6.00;3.20;;;;;;;5.46;39.39;100858.58;105462;1277;138527;-88
2022/03/05 13:54:02;;;;;;;5.50;3.30;;;;;;;5.45;39.21;100858.06;105579;1278;111114;-88
2022/03/05 13:56:41;;;;;;;5.00;3.40;;;;;;;5.40;39.31;100860.84;105536;1279;137899;-87
2022/03/05 13:59:11;;;;;;;5.50;3.50;;;;;;;5.42;39.19;100861.17;107042;1278;107753;-88
2022/03/05 14:01:42;;;;;;;5.90;3.40;;;;;;;5.40;39.21;100859.45;106970;1279;137644;-87
2022/03/05 14:04:16;;;;;;;5.30;3.20;;;;;;;5.40;38.92;100856.86;106410;1278;97842;-89
2022/03/05 14:06:50;;;;;;;6.10;3.10;;;;;;;5.34;38.57;100855.66;105973;1279;111972;-90
2022/03/05 14:09:21;;;;;;;6.20;3.80;;;;;;;5.30;38.62;100860.84;105824;1277;139351;-88
2022/03/05 14:12:08;;;;;;;8.30;5.40;;;;;;;5.41;39.03;100860.48;106814;1278;108307;-89
2022/03/05 14:14:39;;;;;;;8.70;5.00;;;;;;;5.60;39.07;100859.08;106957;1277;139875;-87
2022/03/05 14:17:10;;;;;;;5.60;3.20;;;;;;;5.78;38.68;100858.84;106402;1278;97890;-86
2022/03/05 14:19:38;;;;;;;4.70;3.10;;;;;;;5.87;38.73;100857.95;105470;1279;137728;-87
2022/03/05 14:22:10;;;;;;;6.20;3.80;;;;;;;5.86;38.54;100862.61;105548;1278;108954;-88
2022/03/05 14:24:40;;;;;;;5.10;2.70;;;;;;;5.78;38.75;100869.04;105747;1278;108059;-88